Time;durP1;ratioP1;P1;durP2;ratioP2;P2;SDS_P1;SDS_P2;PMS_P1;PMS_P2;Temp;Humidity;BMP_temperature;BMP_pressure;BME280_temperature;BME280_humidity;BME280_pressure;Samples;Min_cycle;Max_cycle;Signal;HPM_P1;HPM_P2
2023/06/22 00:01:14;;;;;;;;;;;;;;;-140.72;100.00;52439.56;4994412;28;19936;-69
2023/06/22 00:03:39;;;;;;;;;;;;;;;-140.72;100.00;52455.78;4990517;28;20020;-69
2023/06/22 00:06:04;;;;;;;;;;;;;;;-140.72;100.00;52451.72;4981706;28;19946;-69
2023/06/22 00:08:30;;;;;;;;;;;;;;;-140.72;100.00;52453.75;4986602;28;19937;-69
2023/06/22 00:10:55;;;;;;;;;;;;;;;-140.72;100.00;52427.38;4993556;28;19925;-70
2023/06/22 00:13:21;;;;;;;;;;;;;;;-140.72;100.00;52459.84;4986004;28;19968;-70
2023/06/22 00:15:46;;;;;;;;;;;;;;;-140.72;100.00;52421.28;4994460;28;20308;-70
2023/06/22 00:18:13;;;;;;;;;;;;;;;-140.72;100.00;52455.78;4982504;28;19922;-70
2023/06/22 00:20:38;;;;;;;;;;;;;;;-140.72;100.00;52480.16;4973028;28;19926;-70
2023/06/22 00:23:08;;;;;;;;;;;;;;;-140.72;100.00;52455.78;4995018;28;19918;-70
2023/06/22 00:25:42;;;;;;;;;;;;;;;-140.72;100.00;52470.00;4987583;28;19928;-70
2023/06/22 00:28:10;;;;;;;;;;;;;;;-140.72;100.00;52449.72;4978535;28;19926;-70
2023/06/22 00:30:35;;;;;;;;;;;;;;;-140.72;100.00;52435.50;4992004;28;19975;-71
2023/06/22 00:33:01;;;;;;;;;;;;;;;-140.72;100.00;52496.38;4998151;28;19922;-70
2023/06/22 00:35:29;;;;;;;;;;;;;;;-140.72;100.00;52480.16;4972683;28;20288;-70
2023/06/22 00:38:00;;;;;;;;;;;;;;;-140.72;100.00;52433.47;4982662;28;19918;-70
2023/06/22 00:40:26;;;;;;;;;;;;;;;-140.72;100.00;52459.84;4994637;28;19925;-69
2023/06/22 00:42:51;;;;;;;;;;;;;;;-140.72;100.00;52478.13;4993392;28;19918;-69
2023/06/22 00:45:17;;;;;;;;;;;;;;;-140.72;100.00;52484.19;4986794;28;20251;-69
2023/06/22 00:47:43;;;;;;;;;;;;;;;-140.72;100.00;52476.09;4993565;28;19917;-69
2023/06/22 00:50:13;;;;;;;;;;;;;;;-140.72;100.00;52447.69;4993726;28;19948;-69
2023/06/22 00:52:43;;;;;;;;;;;;;;;-140.72;100.00;52480.16;4982508;28;20021;-69
2023/06/22 00:55:08;;;;;;;;;;;;;;;-140.72;100.00;52476.09;4991703;28;19980;-68
2023/06/22 00:57:37;;;;;;;;;;;;;;;-140.72;100.00;52403.03;4993680;28;19921;-69
2023/06/22 01:00:05;;;;;;;;;;;;;;;-140.72;100.00;52467.97;4986349;28;19944;-70
2023/06/22 01:02:31;;;;;;;;;;;;;;;-140.72;100.00;52498.41;4993500;28;19922;-69
2023/06/22 01:04:56;;;;;;;;;;;;;;;-140.72;100.00;52435.50;4990237;28;20066;-69
2023/06/22 01:07:24;;;;;;;;;;;;;;;-140.72;100.00;52451.72;4992996;28;19918;-69
2023/06/22 01:09:58;;;;;;;;;;;;;;;-140.72;100.00;52504.50;4978167;28;19926;-68
2023/06/22 01:12:25;;;;;;;;;;;;;;;-140.72;100.00;52435.50;4973627;28;20022;-68
2023/06/22 01:15:01;;;;;;;;;;;;;;;-140.72;100.00;52480.16;4985892;28;19918;-69
2023/06/22 01:17:27;;;;;;;;;;;;;;;-140.72;100.00;52516.66;4956116;28;19976;-69
2023/06/22 01:19:55;;;;;;;;;;;;;;;-140.72;100.00;52482.16;4987471;28;19925;-69
2023/06/22 01:22:23;;;;;;;;;;;;;;;-140.72;100.00;52463.91;4984587;28;19980;-69
2023/06/22 01:24:54;;;;;;;;;;;;;;;-140.72;100.00;52490.28;4987768;28;19921;-69
2023/06/22 01:27:28;;;;;;;;;;;;;;;-140.72;100.00;52472.03;4992335;28;20305;-69
2023/06/22 01:30:00;;;;;;;;;;;;;;;-140.72;100.00;52482.16;4982808;28;19958;-69
2023/06/22 01:32:27;;;;;;;;;;;;;;;-140.72;100.00;52445.66;4993516;28;19918;-69
2023/06/22 01:34:52;;;;;;;;;;;;;;;-140.72;100.00;52439.56;4998198;28;19984;-69
2023/06/22 01:37:18;;;;;;;;;;;;;;;-140.72;100.00;52463.91;4999806;28;20431;-69
2023/06/22 01:39:44;;;;;;;;;;;;;;;-140.72;100.00;52510.59;4986433;28;19928;-69
2023/06/22 01:42:10;;;;;;;;;;;;;;;-140.72;100.00;52502.47;4989331;28;20000;-70
2023/06/22 01:44:36;;;;;;;;;;;;;;;-140.72;100.00;52504.50;4991685;28;19922;-70
2023/06/22 01:47:04;;;;;;;;;;;;;;;-140.72;100.00;52472.03;4984406;28;20306;-70
2023/06/22 01:49:29;;;;;;;;;;;;;;;-140.72;100.00;52506.53;4982436;28;20020;-70
2023/06/22 01:51:55;;;;;;;;;;;;;;;-140.72;100.00;52500.44;4992908;28;19928;-70
2023/06/22 01:54:20;;;;;;;;;;;;;;;-140.72;100.00;52516.66;4991527;28;20308;-70
2023/06/22 01:56:45;;;;;;;;;;;;;;;-140.72;100.00;52512.59;4992877;28;19945;-70
2023/06/22 01:59:23;;;;;;;;;;;;;;;-140.72;100.00;52476.09;4980545;28;19980;-70
2023/06/22 02:01:57;;;;;;;;;;;;;;;-140.72;100.00;52516.66;4965166;28;19926;-70
2023/06/22 02:04:34;;;;;;;;;;;;;;;-140.72;100.00;52506.53;4991699;28;19980;-70
2023/06/22 02:06:59;;;;;;;;;;;;;;;-140.72;100.00;52498.41;4992889;28;19921;-69
2023/06/22 02:09:28;;;;;;;;;;;;;;;-140.72;100.00;52500.44;4978511;28;20013;-70
2023/06/22 02:11:56;;;;;;;;;;;;;;;-140.72;100.00;52498.41;4992163;28;19921;-70
2023/06/22 02:14:21;;;;;;;;;;;;;;;-140.72;100.00;52494.34;4977430;28;19922;-70
2023/06/22 02:16:47;;;;;;;;;;;;;;;-140.72;100.00;52543.03;4979931;28;20395;-70
2023/06/22 02:19:12;;;;;;;;;;;;;;;-140.72;100.00;52532.91;4984502;28;20406;-70
2023/06/22 02:21:38;;;;;;;;;;;;;;;-140.72;100.00;52492.31;4986495;28;19926;-70
2023/06/22 02:24:03;;;;;;;;;;;;;;;-140.72;100.00;52492.31;4974404;28;19930;-70
2023/06/22 02:26:28;;;;;;;;;;;;;;;-140.72;100.00;52500.44;4989440;28;19929;-70
2023/06/22 02:28:54;;;;;;;;;;;;;;;-140.72;100.00;52492.31;4984507;28;19918;-69
2023/06/22 02:31:20;;;;;;;;;;;;;;;-140.72;100.00;52512.59;4985358;28;19922;-70
2023/06/22 02:33:45;;;;;;;;;;;;;;;-140.72;100.00;52510.59;4975873;28;19918;-70
2023/06/22 02:36:12;;;;;;;;;;;;;;;-140.72;100.00;52500.44;4991239;28;21487;-70
2023/06/22 02:38:39;;;;;;;;;;;;;;;-140.72;100.00;52494.34;4998080;28;19976;-70
2023/06/22 02:41:04;;;;;;;;;;;;;;;-140.72;100.00;52451.72;4997422;28;19932;-70
2023/06/22 02:43:29;;;;;;;;;;;;;;;-140.72;100.00;52532.91;4991484;28;19918;-70
2023/06/22 02:45:55;;;;;;;;;;;;;;;-140.72;100.00;52492.31;4990739;28;19973;-68
2023/06/22 02:48:20;;;;;;;;;;;;;;;-140.72;100.00;52480.16;4997863;28;19924;-68
2023/06/22 02:50:45;;;;;;;;;;;;;;;-140.72;100.00;52528.84;4974864;28;20029;-69
2023/06/22 02:53:10;;;;;;;;;;;;;;;-140.72;100.00;52510.59;4997054;28;20245;-69
2023/06/22 02:55:36;;;;;;;;;;;;;;;-140.72;100.00;52534.94;4993165;28;20013;-69
2023/06/22 02:58:04;;;;;;;;;;;;;;;-140.72;100.00;52476.09;4985944;28;19937;-69
2023/06/22 03:00:30;;;;;;;;;;;;;;;-140.72;100.00;52500.44;4994486;28;19928;-70
2023/06/22 03:02:55;;;;;;;;;;;;;;;-140.72;100.00;52532.91;4969819;28;20228;-70
2023/06/22 03:05:21;;;;;;;;;;;;;;;-140.72;100.00;52522.75;4990382;28;19988;-71
2023/06/22 03:07:46;;;;;;;;;;;;;;;-140.72;100.00;52536.97;4995554;28;19918;-70
2023/06/22 03:10:12;;;;;;;;;;;;;;;-140.72;100.00;52510.59;4976048;28;19926;-70
2023/06/22 03:12:38;;;;;;;;;;;;;;;-140.72;100.00;52534.94;4976853;28;19925;-70
2023/06/22 03:15:07;;;;;;;;;;;;;;;-140.72;100.00;52516.66;4993276;28;19922;-70
2023/06/22 03:17:33;;;;;;;;;;;;;;;-140.72;100.00;52504.50;4994928;28;19944;-71
2023/06/22 03:19:58;;;;;;;;;;;;;;;-140.72;100.00;52549.13;4994589;28;19969;-70
2023/06/22 03:22:24;;;;;;;;;;;;;;;-140.72;100.00;52492.31;4994726;28;19960;-70
2023/06/22 03:24:49;;;;;;;;;;;;;;;-140.72;100.00;52541.03;4977409;28;19933;-70
2023/06/22 03:27:14;;;;;;;;;;;;;;;-140.72;100.00;52536.97;4997148;28;19921;-70
2023/06/22 03:29:39;;;;;;;;;;;;;;;-140.72;100.00;52547.09;4994353;28;20000;-70
2023/06/22 03:32:05;;;;;;;;;;;;;;;-140.72;100.00;52549.13;4994456;28;19968;-70
2023/06/22 03:34:33;;;;;;;;;;;;;;;-140.72;100.00;52514.63;4994844;28;20291;-70
2023/06/22 03:36:58;;;;;;;;;;;;;;;-140.72;100.00;52524.78;4976630;28;20017;-70
2023/06/22 03:39:23;;;;;;;;;;;;;;;-140.72;100.00;52532.91;4993999;28;20416;-70
2023/06/22 03:41:49;;;;;;;;;;;;;;;-140.72;100.00;52516.66;4993142;28;20007;-70
2023/06/22 03:44:14;;;;;;;;;;;;;;;-140.72;100.00;52541.03;4994559;28;19918;-70
2023/06/22 03:46:39;;;;;;;;;;;;;;;-140.72;100.00;52504.50;4993606;28;19976;-70
2023/06/22 03:49:04;;;;;;;;;;;;;;;-140.72;100.00;52512.59;4987762;28;19918;-70
2023/06/22 03:51:30;;;;;;;;;;;;;;;-140.72;100.00;52504.50;4996254;28;20004;-71
2023/06/22 03:53:56;;;;;;;;;;;;;;;-140.72;100.00;52512.59;4983625;28;19925;-75
2023/06/22 03:56:21;;;;;;;;;;;;;;;-140.72;100.00;52555.22;4975705;28;20296;-73
2023/06/22 03:58:46;;;;;;;;;;;;;;;-140.72;100.00;52528.84;4985272;28;20349;-73
2023/06/22 04:01:12;;;;;;;;;;;;;;;-140.72;100.00;52506.53;4988615;28;19922;-73
2023/06/22 04:03:51;;;;;;;;;;;;;;;-140.72;100.00;52498.41;4988629;28;19928;-74
2023/06/22 04:06:17;;;;;;;;;;;;;;;-140.72;100.00;52514.63;4988900;28;20012;-73
2023/06/22 04:08:42;;;;;;;;;;;;;;;-140.72;100.00;52508.56;4988000;28;20042;-73
2023/06/22 04:11:13;;;;;;;;;;;;;;;-140.72;100.00;52514.63;4992876;28;19934;-73
2023/06/22 04:13:39;;;;;;;;;;;;;;;-140.72;100.00;52557.25;4976950;28;19922;-73
2023/06/22 04:16:10;;;;;;;;;;;;;;;-140.72;100.00;52492.31;4990143;28;20387;-70
2023/06/22 04:18:35;;;;;;;;;;;;;;;-140.72;100.00;52502.47;4994301;28;19922;-69
2023/06/22 04:21:01;;;;;;;;;;;;;;;-140.72;100.00;52486.22;4993948;28;19926;-69
2023/06/22 04:23:26;;;;;;;;;;;;;;;-140.72;100.00;52530.88;4993753;28;19928;-73
2023/06/22 04:25:52;;;;;;;;;;;;;;;-140.72;100.00;52498.41;4976475;28;19917;-70
2023/06/22 04:28:17;;;;;;;;;;;;;;;-140.72;100.00;52490.28;4993479;28;19925;-70
2023/06/22 04:30:46;;;;;;;;;;;;;;;-140.72;100.00;52512.59;4994243;28;20367;-70
2023/06/22 04:33:15;;;;;;;;;;;;;;;-140.72;100.00;52518.69;4986723;28;19922;-70
2023/06/22 04:35:43;;;;;;;;;;;;;;;-140.72;100.00;52500.44;4986836;28;20008;-72
2023/06/22 04:38:08;;;;;;;;;;;;;;;-140.72;100.00;52496.38;4985080;28;19926;-70
2023/06/22 04:40:34;;;;;;;;;;;;;;;-140.72;100.00;52508.56;4988311;28;19925;-70
2023/06/22 04:43:02;;;;;;;;;;;;;;;-140.72;100.00;52504.50;4974074;28;20471;-71
2023/06/22 04:45:28;;;;;;;;;;;;;;;-140.72;100.00;52467.97;4983741;28;19952;-69
2023/06/22 04:47:53;;;;;;;;;;;;;;;-140.72;100.00;52488.25;4986150;28;19922;-71
2023/06/22 04:53:19;;;;;;;;;;;;;;;-140.72;100.00;52522.75;4991527;28;19929;-72
2023/06/22 04:55:45;;;;;;;;;;;;;;;-140.72;100.00;52484.19;4976288;28;19954;-70
2023/06/22 04:58:12;;;;;;;;;;;;;;;-140.72;100.00;52486.22;4982506;28;19922;-70
2023/06/22 05:00:38;;;;;;;;;;;;;;;-140.72;100.00;52449.72;4983363;28;20000;-70
2023/06/22 05:03:06;;;;;;;;;;;;;;;-140.72;100.00;52500.44;4988313;28;20004;-70
2023/06/22 05:05:31;;;;;;;;;;;;;;;-140.72;100.00;52472.03;4993685;28;19957;-70
2023/06/22 05:08:00;;;;;;;;;;;;;;;-140.72;100.00;52480.16;4989271;28;19954;-71
2023/06/22 05:10:25;;;;;;;;;;;;;;;-140.72;100.00;52474.06;4990650;28;20319;-71
2023/06/22 05:12:54;;;;;;;;;;;;;;;-140.72;100.00;52498.41;4987541;28;19933;-69
2023/06/22 05:15:19;;;;;;;;;;;;;;;-140.72;100.00;52490.28;4981053;28;19950;-69
2023/06/22 05:17:44;;;;;;;;;;;;;;;-140.72;100.00;52472.03;4991186;28;19960;-71
2023/06/22 05:20:26;;;;;;;;;;;;;;;-140.72;100.00;52484.19;4996533;28;19918;-73
2023/06/22 05:22:51;;;;;;;;;;;;;;;-140.72;100.00;52496.38;4975769;28;19918;-72
2023/06/22 05:25:16;;;;;;;;;;;;;;;-140.72;100.00;52478.13;4969513;28;20024;-71
2023/06/22 05:27:43;;;;;;;;;;;;;;;-140.72;100.00;52455.78;4987039;28;20368;-71
2023/06/22 05:30:11;;;;;;;;;;;;;;;-140.72;100.00;52447.69;4975241;28;19922;-70
2023/06/22 05:32:36;;;;;;;;;;;;;;;-140.72;100.00;52451.72;4982898;28;19997;-71
2023/06/22 05:35:02;;;;;;;;;;;;;;;-140.72;100.00;52407.09;4986537;28;20317;-71
2023/06/22 05:37:28;;;;;;;;;;;;;;;-140.72;100.00;52453.75;4987748;28;19933;-71
2023/06/22 05:39:55;;;;;;;;;;;;;;;-140.72;100.00;52490.28;4991227;28;19922;-71
2023/06/22 05:42:20;;;;;;;;;;;;;;;-140.72;100.00;52461.88;4985648;28;19922;-71
2023/06/22 05:44:46;;;;;;;;;;;;;;;-140.72;100.00;52429.41;4991771;28;19945;-71
2023/06/22 05:47:12;;;;;;;;;;;;;;;-140.72;100.00;52463.91;4993722;28;19922;-71
2023/06/22 05:49:37;;;;;;;;;;;;;;;-140.72;100.00;52457.81;4998544;28;19937;-71
2023/06/22 05:52:02;;;;;;;;;;;;;;;-140.72;100.00;52423.31;4989041;28;20402;-72
2023/06/22 05:54:30;;;;;;;;;;;;;;;-140.72;100.00;52439.56;4990498;28;19932;-70
2023/06/22 05:56:55;;;;;;;;;;;;;;;-140.72;100.00;52435.50;4969998;28;20029;-70
2023/06/22 05:59:20;;;;;;;;;;;;;;;-140.72;100.00;52435.50;4990428;28;19933;-70
2023/06/22 06:01:49;;;;;;;;;;;;;;;-140.72;100.00;52405.06;4993486;28;19997;-72
2023/06/22 06:04:14;;;;;;;;;;;;;;;-140.72;100.00;52392.88;4970122;28;19929;-72
2023/06/22 06:06:40;;;;;;;;;;;;;;;-140.72;100.00;52390.84;4984062;28;20017;-70
2023/06/22 06:09:05;;;;;;;;;;;;;;;-140.72;100.00;52392.88;4986501;28;19967;-71
2023/06/22 06:11:30;;;;;;;;;;;;;;;-140.72;100.00;52398.97;4987516;28;19925;-71
2023/06/22 06:13:56;;;;;;;;;;;;;;;-140.72;100.00;52407.09;4980413;28;19968;-72
2023/06/22 06:16:22;;;;;;;;;;;;;;;-140.72;100.00;52384.78;4990012;28;19918;-72
2023/06/22 06:18:49;;;;;;;;;;;;;;;-140.72;100.00;52437.53;4981583;28;19922;-70
2023/06/22 06:21:14;;;;;;;;;;;;;;;-140.72;100.00;52396.94;4967430;28;19929;-70
2023/06/22 06:23:39;;;;;;;;;;;;;;;-140.72;100.00;52398.97;4987426;28;20284;-70
2023/06/22 06:26:06;;;;;;;;;;;;;;;-140.72;100.00;52398.97;4987679;28;19918;-70
2023/06/22 06:28:32;;;;;;;;;;;;;;;-140.72;100.00;52405.06;4992123;28;19940;-70
2023/06/22 06:30:57;;;;;;;;;;;;;;;-140.72;100.00;52352.31;4993214;28;19922;-70
2023/06/22 06:33:22;;;;;;;;;;;;;;;-140.72;100.00;52368.53;4988975;28;20397;-70
2023/06/22 06:35:47;;;;;;;;;;;;;;;-140.72;100.00;52374.63;4995167;28;19918;-70
2023/06/22 06:38:12;;;;;;;;;;;;;;;-140.72;100.00;52374.63;4991154;28;19918;-70
2023/06/22 06:40:38;;;;;;;;;;;;;;;-140.72;100.00;52398.97;4987427;28;19926;-70
2023/06/22 06:43:03;;;;;;;;;;;;;;;-140.72;100.00;52354.34;4988794;28;19921;-70
2023/06/22 06:45:30;;;;;;;;;;;;;;;-140.72;100.00;52348.25;4991578;28;19967;-70
2023/06/22 06:47:56;;;;;;;;;;;;;;;-140.72;100.00;52366.50;4990736;28;19921;-70
2023/06/22 06:50:21;;;;;;;;;;;;;;;-140.72;100.00;52374.63;4962739;28;19918;-69
2023/06/22 06:52:47;;;;;;;;;;;;;;;-140.72;100.00;52374.63;4989719;28;19922;-70
2023/06/22 06:55:12;;;;;;;;;;;;;;;-140.72;100.00;52342.16;4982258;28;20233;-70
2023/06/22 06:57:38;;;;;;;;;;;;;;;-140.72;100.00;52366.50;4988778;28;19926;-70
2023/06/22 07:00:09;;;;;;;;;;;;;;;-140.72;100.00;52392.88;4986829;28;19918;-70
2023/06/22 07:02:34;;;;;;;;;;;;;;;-140.72;100.00;52384.78;4986283;28;19921;-70
2023/06/22 07:05:00;;;;;;;;;;;;;;;-140.72;100.00;52336.06;4990698;28;19918;-71
2023/06/22 07:07:25;;;;;;;;;;;;;;;-140.72;100.00;52348.25;4990527;28;20330;-70
2023/06/22 07:09:50;;;;;;;;;;;;;;;-140.72;100.00;52346.22;4983726;28;19941;-71
2023/06/22 07:12:16;;;;;;;;;;;;;;;-140.72;100.00;52346.22;4982979;28;19926;-70
2023/06/22 07:14:41;;;;;;;;;;;;;;;-140.72;100.00;52358.41;4984301;28;19930;-70
2023/06/22 07:17:06;;;;;;;;;;;;;;;-140.72;100.00;52327.97;4985573;28;20311;-71
2023/06/22 07:19:32;;;;;;;;;;;;;;;-140.72;100.00;52305.63;4992385;28;19918;-70
2023/06/22 07:21:58;;;;;;;;;;;;;;;-140.72;100.00;52305.63;4982135;28;19958;-70
2023/06/22 07:24:24;;;;;;;;;;;;;;;-140.72;100.00;52293.47;4991416;28;19921;-70
2023/06/22 07:26:50;;;;;;;;;;;;;;;-140.72;100.00;52313.75;4990091;28;19996;-70
2023/06/22 07:29:16;;;;;;;;;;;;;;;-140.72;100.00;52301.59;4988818;28;19918;-70
2023/06/22 07:31:41;;;;;;;;;;;;;;;-140.72;100.00;52287.38;4990568;28;20080;-71
2023/06/22 07:34:07;;;;;;;;;;;;;;;-140.72;100.00;52283.31;4986592;28;19926;-70
2023/06/22 07:36:32;;;;;;;;;;;;;;;-140.72;100.00;52273.19;4996550;28;20099;-71
2023/06/22 07:38:57;;;;;;;;;;;;;;;-140.72;100.00;52277.22;5002874;28;19940;-70
2023/06/22 07:41:22;;;;;;;;;;;;;;;-140.72;100.00;52303.59;4982105;28;19975;-70
2023/06/22 07:43:48;;;;;;;;;;;;;;;-140.72;100.00;52315.78;4993145;28;19918;-70
2023/06/22 07:46:13;;;;;;;;;;;;;;;-140.72;100.00;52281.28;4991551;28;19993;-71
2023/06/22 07:48:39;;;;;;;;;;;;;;;-140.72;100.00;52277.22;4975979;28;19917;-70
2023/06/22 07:51:05;;;;;;;;;;;;;;;-140.72;100.00;52252.88;4989280;28;20004;-70
2023/06/22 07:53:30;;;;;;;;;;;;;;;-140.72;100.00;52271.16;4975905;28;19925;-70
2023/06/22 07:55:56;;;;;;;;;;;;;;;-140.72;100.00;52273.19;4993569;28;19925;-70
2023/06/22 07:58:21;;;;;;;;;;;;;;;-140.72;100.00;52273.19;4994166;28;20024;-71
2023/06/22 08:00:46;;;;;;;;;;;;;;;-140.72;100.00;52244.78;4994830;28;19929;-70
2023/06/22 08:03:12;;;;;;;;;;;;;;;-140.72;100.00;52267.09;4975618;28;20025;-70
2023/06/22 08:05:37;;;;;;;;;;;;;;;-140.72;100.00;52256.94;4992072;28;21639;-71
2023/06/22 08:08:02;;;;;;;;;;;;;;;-140.72;100.00;52210.28;4996769;28;19929;-71
2023/06/22 08:10:27;;;;;;;;;;;;;;;-140.72;100.00;52230.56;4966511;28;19918;-71
2023/06/22 08:12:53;;;;;;;;;;;;;;;-140.72;100.00;52212.31;4993135;28;20394;-71
2023/06/22 08:15:18;;;;;;;;;;;;;;;-140.72;100.00;52208.25;4992313;28;20290;-71
2023/06/22 08:17:44;;;;;;;;;;;;;;;-140.72;100.00;52198.09;4993047;28;20275;-71
2023/06/22 08:20:11;;;;;;;;;;;;;;;-140.72;100.00;52179.84;4993574;28;19926;-71
2023/06/22 08:22:36;;;;;;;;;;;;;;;-140.72;100.00;52220.41;4976198;28;19992;-71
2023/06/22 08:25:02;;;;;;;;;;;;;;;-140.72;100.00;52179.84;4992611;28;19926;-71
2023/06/22 08:27:29;;;;;;;;;;;;;;;-140.72;100.00;52173.75;4993475;28;20045;-73
2023/06/22 08:29:58;;;;;;;;;;;;;;;-140.72;100.00;52129.13;4993271;28;19962;-72
2023/06/22 08:32:24;;;;;;;;;;;;;;;-140.72;100.00;52145.34;4987493;28;19919;-72
2023/06/22 08:34:49;;;;;;;;;;;;;;;-140.72;86.63;52143.31;4985532;28;19922;-71
2023/06/22 08:37:14;;;;;;;;;;;;;;;-140.72;100.00;52135.19;4988120;28;19941;-71
2023/06/22 08:39:41;;;;;;;;;;;;;;;-140.72;94.84;52175.78;4977256;28;20288;-71
2023/06/22 08:42:06;;;;;;;;;;;;;;;-140.72;74.77;52155.50;4988103;28;20298;-71
2023/06/22 08:44:31;;;;;;;;;;;;;;;-140.72;70.23;52098.69;4989348;28;20008;-71
2023/06/22 08:46:57;;;;;;;;;;;;;;;-140.72;46.21;52114.91;4992079;28;19937;-71
2023/06/22 08:49:22;;;;;;;;;;;;;;;-140.72;14.26;52104.75;4992338;28;19964;-70
2023/06/22 08:51:49;;;;;;;;;;;;;;;-140.72;6.06;52133.16;4991275;28;19949;-70
2023/06/22 08:54:14;;;;;;;;;;;;;;;-140.72;0.00;52108.81;4990349;28;19918;-71
2023/06/22 08:56:39;;;;;;;;;;;;;;;-140.72;0.00;52118.97;4974932;28;19924;-74
2023/06/22 08:59:07;;;;;;;;;;;;;;;-140.72;0.00;52135.19;4970511;28;19918;-71
2023/06/22 09:01:33;;;;;;;;;;;;;;;-140.72;0.00;52125.06;4974072;28;19921;-70
2023/06/22 09:03:59;;;;;;;;;;;;;;;-140.72;0.00;52135.19;4992090;28;20013;-71
2023/06/22 09:06:24;;;;;;;;;;;;;;;-140.72;0.00;52102.75;4973763;28;19922;-71
2023/06/22 09:08:50;;;;;;;;;;;;;;;-140.72;0.00;52108.81;4983811;28;19933;-71
2023/06/22 09:11:15;;;;;;;;;;;;;;;-140.72;0.00;52108.81;4984734;28;20374;-71
2023/06/22 09:13:40;;;;;;;;;;;;;;;-140.72;0.00;52123.03;4991625;28;20013;-71
2023/06/22 09:16:06;;;;;;;;;;;;;;;-140.72;0.00;52078.38;4992594;28;19950;-71
2023/06/22 09:18:31;;;;;;;;;;;;;;;-140.72;0.00;52086.50;4991946;28;19937;-71
2023/06/22 09:20:57;;;;;;;;;;;;;;;-140.72;0.00;52092.59;4987726;28;19934;-71
2023/06/22 09:23:22;;;;;;;;;;;;;;;-140.72;0.00;52070.28;4996982;28;19926;-72
2023/06/22 09:25:47;;;;;;;;;;;;;;;-140.72;0.00;52104.75;4984484;28;19926;-71
2023/06/22 09:28:13;;;;;;;;;;;;;;;-140.72;0.00;52086.50;4973303;28;19993;-71
2023/06/22 09:30:40;;;;;;;;;;;;;;;-140.72;0.00;52118.97;4980138;28;20465;-70
2023/06/22 09:33:05;;;;;;;;;;;;;;;-140.72;0.00;52102.75;4990122;28;20311;-70
2023/06/22 09:35:31;;;;;;;;;;;;;;;-140.72;0.00;52086.50;4993085;28;19917;-70
2023/06/22 09:37:56;;;;;;;;;;;;;;;-140.72;0.00;52106.78;4976574;28;19933;-70
2023/06/22 09:40:21;;;;;;;;;;;;;;;-140.72;0.00;52070.28;4964268;28;19918;-70
2023/06/22 09:42:46;;;;;;;;;;;;;;;-140.72;0.00;52110.84;4989964;28;19922;-70
2023/06/22 09:45:12;;;;;;;;;;;;;;;-140.72;0.00;52088.53;4983915;28;20252;-70
2023/06/22 09:47:37;;;;;;;;;;;;;;;-140.72;0.00;52129.13;4988272;28;19922;-70
2023/06/22 09:50:02;;;;;;;;;;;;;;;-140.72;0.00;52078.38;4975172;28;19925;-70
2023/06/22 09:52:28;;;;;;;;;;;;;;;-140.72;0.00;52096.66;4972248;28;20339;-70
2023/06/22 09:54:53;;;;;;;;;;;;;;;-140.72;0.00;52102.75;4990240;28;19992;-70
2023/06/22 09:57:18;;;;;;;;;;;;;;;-140.72;0.00;52118.97;4989385;28;19972;-70
2023/06/22 09:59:43;;;;;;;;;;;;;;;-140.72;0.00;52090.56;4991073;28;19925;-70
2023/06/22 10:02:09;;;;;;;;;;;;;;;-140.72;0.00;52139.25;4986658;28;19924;-70
2023/06/22 10:04:34;;;;;;;;;;;;;;;-140.72;0.00;52116.94;4991267;28;19924;-70
2023/06/22 10:06:59;;;;;;;;;;;;;;;-140.72;0.00;52082.44;4988120;28;19918;-70
2023/06/22 10:09:25;;;;;;;;;;;;;;;-140.72;0.00;52098.69;4974102;28;19918;-70
2023/06/22 10:11:50;;;;;;;;;;;;;;;-140.72;0.00;52092.59;4991881;28;19949;-70
2023/06/22 10:14:16;;;;;;;;;;;;;;;-140.72;0.00;52084.47;4992084;28;20291;-70
2023/06/22 10:16:41;;;;;;;;;;;;;;;-140.72;0.00;52155.50;4990826;28;20372;-69
2023/06/22 10:19:06;;;;;;;;;;;;;;;-140.72;0.00;52143.31;4974248;28;19921;-69
2023/06/22 10:21:32;;;;;;;;;;;;;;;-140.72;0.00;52147.38;4993254;28;19917;-70
2023/06/22 10:23:58;;;;;;;;;;;;;;;-140.72;0.00;52153.47;4976359;28;20372;-70
2023/06/22 10:26:24;;;;;;;;;;;;;;;-140.72;0.00;52159.56;4973881;28;19961;-69
2023/06/22 10:28:49;;;;;;;;;;;;;;;-140.72;0.00;52171.72;4991657;28;20379;-70
2023/06/22 10:31:16;;;;;;;;;;;;;;;-140.72;0.00;52189.97;4991366;28;19941;-69
2023/06/22 10:33:43;;;;;;;;;;;;;;;-140.72;0.00;52208.25;4990026;28;20307;-69
2023/06/22 10:36:08;;;;;;;;;;;;;;;-140.72;0.00;52185.94;4989613;28;20245;-70
2023/06/22 10:38:34;;;;;;;;;;;;;;;-140.72;0.00;52155.50;4991372;28;19925;-70
2023/06/22 10:40:59;;;;;;;;;;;;;;;-140.72;0.00;52198.09;4990718;28;20017;-70
2023/06/22 10:43:24;;;;;;;;;;;;;;;-140.72;0.00;52216.34;4983998;28;19928;-69
2023/06/22 10:45:49;;;;;;;;;;;;;;;-140.72;0.00;52206.22;4988800;28;19924;-70
2023/06/22 10:48:15;;;;;;;;;;;;;;;-140.72;0.00;52212.31;4991507;28;19921;-70
2023/06/22 10:50:40;;;;;;;;;;;;;;;-140.72;0.00;52187.97;4973524;28;20036;-70
2023/06/22 10:53:05;;;;;;;;;;;;;;;-140.72;0.00;52212.31;4991003;28;19918;-69
2023/06/22 10:55:30;;;;;;;;;;;;;;;-140.72;0.00;52187.97;4994629;28;20012;-69
2023/06/22 10:57:55;;;;;;;;;;;;;;;-140.72;0.00;52149.41;4993573;28;19953;-69
2023/06/22 11:00:21;;;;;;;;;;;;;;;-140.72;0.00;52198.09;4993063;28;19930;-69
2023/06/22 11:02:46;;;;;;;;;;;;;;;-140.72;8.39;52196.06;4995144;28;20392;-70
2023/06/22 11:05:11;;;;;;;;;;;;;;;-140.72;21.02;52187.97;4992087;28;20340;-70
2023/06/22 11:07:38;;;;;;;;;;;;;;;-140.72;14.94;52167.66;5005435;28;19934;-70
2023/06/22 11:10:03;;;;;;;;;;;;;;;-140.72;25.08;52252.88;4994630;28;19918;-69
2023/06/22 11:12:28;;;;;;;;;;;;;;;-140.72;21.56;52187.97;4978904;28;19925;-70
2023/06/22 11:14:54;;;;;;;;;;;;;;;-140.72;16.31;52196.06;4974840;28;20237;-70
2023/06/22 11:17:19;;;;;;;;;;;;;;;-140.72;11.59;52198.09;4976885;28;20008;-69
2023/06/22 11:19:44;;;;;;;;;;;;;;;-140.72;7.98;52187.97;4994480;28;19925;-70
2023/06/22 11:22:10;;;;;;;;;;;;;;;-140.72;27.79;52206.22;4994743;28;19966;-70
2023/06/22 11:24:35;;;;;;;;;;;;;;;-140.72;17.96;52198.09;4994459;28;19926;-70
2023/06/22 11:27:00;;;;;;;;;;;;;;;-140.72;17.91;52238.69;4994860;28;19988;-69
2023/06/22 11:29:25;;;;;;;;;;;;;;;-140.72;38.14;52192.00;4993880;28;19918;-71
2023/06/22 11:31:50;;;;;;;;;;;;;;;-140.72;100.00;52200.13;4994464;28;20017;-69
2023/06/22 11:34:16;;;;;;;;;;;;;;;-140.72;100.00;52200.13;4974606;28;19918;-70
2023/06/22 11:36:41;;;;;;;;;;;;;;;-140.72;100.00;52208.25;4994460;28;20320;-69
2023/06/22 11:39:09;;;;;;;;;;;;;;;-140.72;100.00;52230.56;4994016;28;19922;-70
2023/06/22 11:41:34;;;;;;;;;;;;;;;-140.72;100.00;52218.38;4977117;28;19941;-69
2023/06/22 11:43:59;;;;;;;;;;;;;;;-140.72;100.00;52226.50;4995144;28;20360;-70
2023/06/22 11:46:25;;;;;;;;;;;;;;;-140.72;100.00;52248.81;4993772;28;20434;-69
2023/06/22 11:48:50;;;;;;;;;;;;;;;-140.72;100.00;52256.94;4994484;28;19945;-69
2023/06/22 11:51:15;;;;;;;;;;;;;;;-140.72;100.00;52240.72;4994461;28;19918;-69
2023/06/22 11:53:40;;;;;;;;;;;;;;;-140.72;100.00;52261.00;4994217;28;19924;-69
2023/06/22 11:56:06;;;;;;;;;;;;;;;-140.72;100.00;52242.75;4974347;28;20264;-69
2023/06/22 11:58:31;;;;;;;;;;;;;;;-140.72;100.00;52232.59;4992394;28;19961;-69
2023/06/22 12:00:56;;;;;;;;;;;;;;;-140.72;100.00;52236.66;4993223;28;19933;-69
2023/06/22 12:03:21;;;;;;;;;;;;;;;-140.72;100.00;52281.28;4993304;28;19925;-70
2023/06/22 12:05:47;;;;;;;;;;;;;;;-140.72;100.00;52263.03;4993319;28;19929;-69
2023/06/22 12:08:13;;;;;;;;;;;;;;;-140.72;100.00;52242.75;4975227;28;19928;-69
2023/06/22 12:10:38;;;;;;;;;;;;;;;-140.72;100.00;52265.06;4993314;28;19925;-69
2023/06/22 12:13:03;;;;;;;;;;;;;;;-140.72;100.00;52244.78;4989000;28;19921;-69
2023/06/22 12:15:29;;;;;;;;;;;;;;;-140.72;100.00;52228.53;4991707;28;19954;-69
2023/06/22 12:17:54;;;;;;;;;;;;;;;-140.72;100.00;52240.72;4994356;28;20020;-69